createdAt,value
2019-01-12T00:01:51.295Z,1.63
2019-01-12T00:07:16.140Z,1.90
2019-01-12T00:09:45.781Z,1.30
2019-01-12T00:12:15.473Z,1.53
2019-01-12T00:14:45.201Z,1.50
2019-01-12T00:17:17.118Z,1.57
2019-01-12T00:20:06.060Z,1.20
2019-01-12T00:22:58.486Z,1.73
2019-01-12T00:28:28.435Z,1.50
2019-01-12T00:33:51.733Z,1.60
2019-01-12T00:36:32.948Z,1.63
2019-01-12T00:39:02.533Z,1.10
2019-01-12T00:41:31.993Z,1.50
2019-01-12T00:44:01.578Z,1.20
2019-01-12T00:46:53.055Z,1.63
2019-01-12T00:49:23.169Z,1.73
2019-01-12T00:51:53.047Z,1.00
2019-01-12T00:54:23.242Z,1.43
2019-01-12T00:57:12.341Z,1.30
2019-01-12T01:00:03.063Z,1.40
2019-01-12T01:02:32.203Z,1.20
2019-01-12T01:05:01.671Z,1.30
2019-01-12T01:07:34.935Z,2.00
2019-01-12T01:10:26.281Z,1.40
2019-01-12T01:13:22.677Z,1.70
2019-01-12T01:15:52.449Z,1.77
2019-01-12T01:18:21.981Z,1.63
2019-01-12T01:20:51.823Z,2.10
2019-01-12T01:23:41.429Z,1.23
2019-01-12T01:26:22.847Z,1.37
2019-01-12T01:31:49.634Z,2.40
2019-01-12T01:34:19.774Z,1.10
2019-01-12T01:36:52.301Z,1.70
2019-01-12T01:39:24.890Z,0.93
2019-01-12T01:42:15.290Z,1.77
2019-01-12T01:44:57.132Z,1.60
2019-01-12T01:49:53.687Z,1.57
2019-01-12T01:52:34.645Z,1.27
2019-01-12T01:55:15.577Z,1.30
2019-01-12T01:57:47.572Z,1.80
2019-01-12T02:00:36.626Z,1.20
2019-01-12T02:03:17.448Z,1.47
2019-01-12T02:05:59.453Z,1.87
2019-01-12T02:11:27.641Z,1.37
2019-01-12T02:14:05.876Z,1.63
2019-01-12T02:16:56.456Z,2.17
2019-01-12T02:19:34.186Z,1.20
2019-01-12T02:24:43.651Z,1.63
2019-01-12T02:32:38.055Z,1.10
2019-01-12T02:37:52.022Z,1.27
2019-01-12T02:40:21.939Z,0.80
2019-01-12T02:43:10.557Z,1.10
2019-01-12T02:45:40.378Z,1.20
2019-01-12T02:48:30.941Z,1.23
2019-01-12T02:59:36.922Z,0.90
2019-01-12T03:02:18.409Z,1.10
2019-01-12T03:04:59.449Z,1.43
2019-01-12T03:07:31.500Z,1.00
2019-01-12T03:10:20.101Z,0.93
2019-01-12T03:12:49.893Z,1.80
2019-01-12T03:15:26.028Z,1.20
2019-01-12T03:18:00.589Z,1.30
2019-01-12T03:20:59.302Z,1.33
2019-01-12T03:23:31.523Z,1.60
2019-01-12T03:26:01.249Z,1.30
2019-01-12T03:28:36.777Z,1.20
2019-01-12T03:31:06.536Z,1.30
2019-01-12T03:33:36.454Z,1.33
2019-01-12T03:36:06.676Z,1.70
2019-01-12T03:38:57.097Z,1.37
2019-01-12T03:41:30.246Z,1.30
2019-01-12T03:44:00.003Z,1.40
2019-01-12T03:46:34.166Z,1.70
2019-01-12T03:49:27.703Z,1.17
2019-01-12T03:52:16.444Z,1.17
2019-01-12T03:54:57.492Z,1.00
2019-01-12T03:57:29.639Z,1.10
2019-01-12T04:02:51.251Z,1.30
2019-01-12T04:05:41.555Z,1.10
2019-01-12T04:08:30.496Z,1.10
2019-01-12T04:14:12.739Z,1.30
2019-01-12T04:16:50.838Z,1.50
2019-01-12T04:19:50.236Z,1.20
2019-01-12T04:22:22.546Z,1.67
2019-01-12T04:36:41.583Z,1.00
2019-01-12T04:39:14.538Z,0.90
2019-01-12T04:42:12.599Z,1.40
2019-01-12T04:44:51.698Z,0.80
2019-01-12T04:47:40.453Z,1.70
2019-01-12T04:50:22.044Z,1.20
2019-01-12T04:53:11.449Z,0.97
2019-01-12T04:59:03.583Z,1.33
2019-01-12T05:01:39.165Z,1.40
2019-01-12T05:04:13.965Z,1.23
2019-01-12T05:07:23.668Z,1.20
2019-01-12T05:10:17.166Z,1.33
2019-01-12T05:12:46.979Z,1.07
2019-01-12T05:18:18.793Z,1.00
2019-01-12T05:26:25.558Z,1.43
2019-01-12T05:31:58.337Z,1.13
2019-01-12T05:41:19.422Z,1.77
2019-01-12T05:43:49.060Z,1.57
2019-01-12T05:46:18.950Z,1.60
2019-01-12T05:49:07.944Z,1.37
2019-01-12T05:54:26.811Z,2.20
2019-01-12T05:57:22.879Z,2.03
2019-01-12T06:00:05.002Z,1.30
2019-01-12T06:06:07.246Z,1.33
2019-01-12T06:11:53.486Z,1.23
2019-01-12T06:14:44.904Z,1.67
2019-01-12T06:20:36.834Z,1.33
2019-01-12T06:23:06.808Z,1.47
2019-01-12T06:28:46.213Z,1.20
2019-01-12T06:31:57.360Z,1.37
2019-01-12T06:40:01.097Z,1.20
2019-01-12T06:45:25.980Z,1.30
2019-01-12T06:50:56.508Z,1.90
2019-01-12T06:53:45.248Z,1.50
2019-01-12T06:56:30.776Z,1.43
2019-01-12T06:59:12.559Z,1.20
2019-01-12T07:02:09.955Z,1.30
2019-01-12T07:04:48.739Z,1.63
2019-01-12T07:07:38.809Z,1.37
2019-01-12T07:10:11.740Z,1.77
2019-01-12T07:15:48.299Z,1.20
2019-01-12T07:18:40.328Z,1.30
2019-01-12T07:21:21.603Z,1.40
2019-01-12T07:24:10.447Z,1.13
2019-01-12T07:27:01.156Z,1.17
2019-01-12T07:36:39.865Z,1.20
2019-01-12T07:39:14.814Z,1.20
2019-01-12T07:42:06.494Z,1.30
2019-01-12T07:44:39.472Z,1.50
2019-01-12T07:47:30.885Z,1.63
2019-01-12T07:50:20.448Z,1.70
2019-01-12T07:53:03.067Z,1.63
2019-01-12T07:56:11.042Z,1.67
2019-01-12T08:01:53.842Z,1.50
2019-01-12T08:07:59.467Z,1.27
2019-01-12T08:13:25.240Z,1.53
2019-01-12T08:19:04.880Z,1.40
2019-01-12T08:22:00.196Z,1.77
2019-01-12T08:30:39.796Z,2.27
2019-01-12T08:33:14.523Z,1.40
2019-01-12T08:35:47.604Z,1.20
2019-01-12T08:38:18.933Z,1.60
2019-01-12T08:43:38.598Z,1.43
2019-01-12T08:46:14.402Z,2.00
2019-01-12T08:49:05.097Z,2.50
2019-01-12T08:57:30.727Z,1.60
2019-01-12T09:03:33.892Z,1.73
2019-01-12T09:05:50.179Z,1.67
2019-01-12T09:08:21.039Z,2.43
2019-01-12T09:10:54.447Z,1.57
2019-01-12T09:13:24.557Z,1.70
2019-01-12T09:15:57.002Z,1.40
2019-01-12T09:18:45.807Z,2.00
2019-01-12T09:21:15.634Z,1.80
2019-01-12T09:24:04.140Z,2.20
2019-01-12T09:26:45.185Z,2.13
2019-01-12T09:29:14.791Z,2.00
2019-01-12T09:31:44.567Z,1.90
2019-01-12T09:34:14.271Z,2.10
2019-01-12T09:37:04.296Z,1.70
2019-01-12T09:42:27.449Z,2.43
2019-01-12T09:44:56.974Z,1.80
2019-01-12T09:47:26.718Z,2.17
2019-01-12T09:50:16.240Z,1.70
2019-01-12T09:58:06.320Z,1.60
2019-01-12T10:00:36.002Z,1.23
2019-01-12T10:03:05.420Z,1.57
2019-01-12T10:05:34.928Z,1.37
2019-01-12T10:08:04.691Z,1.50
2019-01-12T10:10:34.144Z,1.27
2019-01-12T10:13:22.645Z,1.27
2019-01-12T10:15:52.305Z,1.50
2019-01-12T10:18:41.314Z,1.57
2019-01-12T10:21:10.769Z,1.50
2019-01-12T10:23:40.515Z,1.60
2019-01-12T10:26:10.063Z,1.50
2019-01-12T10:28:40.146Z,1.50
2019-01-12T10:31:28.743Z,1.53
2019-01-12T10:33:58.316Z,1.40
2019-01-12T10:36:27.875Z,1.60
2019-01-12T10:41:32.227Z,1.10
2019-01-12T10:44:01.747Z,2.00
2019-01-12T10:46:31.241Z,1.60
2019-01-12T10:49:00.755Z,1.30
2019-01-12T10:51:30.416Z,1.13
2019-01-12T10:56:43.844Z,1.33
2019-01-12T10:59:32.439Z,1.20
2019-01-12T11:02:01.923Z,2.13
2019-01-12T11:04:31.337Z,1.33
2019-01-12T11:07:00.940Z,1.30
2019-01-12T11:09:30.691Z,1.30
2019-01-12T11:12:00.199Z,1.80
2019-01-12T11:14:30.091Z,1.20
2019-01-12T11:16:59.700Z,1.20
2019-01-12T11:19:32.620Z,1.93
2019-01-12T11:22:02.019Z,1.30
2019-01-12T11:27:12.175Z,1.70
2019-01-12T11:32:15.847Z,1.70
2019-01-12T11:34:45.260Z,1.50
2019-01-12T11:40:03.477Z,1.33
2019-01-12T11:42:32.896Z,1.50
2019-01-12T11:45:02.351Z,1.50
2019-01-12T11:47:31.823Z,1.63
2019-01-12T11:53:09.995Z,1.47
2019-01-12T11:55:40.308Z,1.40
2019-01-12T11:58:09.720Z,1.60
2019-01-12T12:00:39.348Z,1.50
2019-01-12T12:03:08.958Z,1.30
2019-01-12T12:05:38.482Z,1.83
2019-01-12T12:08:07.966Z,1.53
2019-01-12T12:10:37.545Z,1.90
2019-01-12T12:13:07.132Z,1.80
2019-01-12T12:15:36.594Z,1.40
2019-01-12T12:18:06.094Z,1.30
2019-01-12T12:20:38.129Z,1.80
2019-01-12T12:23:07.682Z,1.67
2019-01-12T12:25:37.595Z,1.50
2019-01-12T12:28:07.115Z,1.40
2019-01-12T12:30:39.209Z,2.20
2019-01-12T12:33:08.393Z,1.70
2019-01-12T12:35:40.249Z,1.80
2019-01-12T12:38:09.701Z,1.70
2019-01-12T12:40:39.585Z,1.83
2019-01-12T12:43:09.411Z,2.20
2019-01-12T12:45:39.263Z,1.70
2019-01-12T12:48:08.859Z,1.70
2019-01-12T12:50:38.685Z,2.50
2019-01-12T12:53:08.440Z,1.93
2019-01-12T12:58:31.795Z,2.20
2019-01-12T13:01:01.417Z,2.30
2019-01-12T13:03:30.859Z,2.53
2019-01-12T13:06:00.418Z,2.63
2019-01-12T13:11:39.052Z,2.37
2019-01-12T13:17:02.975Z,2.37
2019-01-12T13:19:32.403Z,2.40
2019-01-12T13:22:01.837Z,2.33
2019-01-12T13:24:31.313Z,2.20
2019-01-12T13:27:01.051Z,3.10
2019-01-12T13:29:30.494Z,2.00
2019-01-12T13:31:59.981Z,2.20
2019-01-12T13:34:29.392Z,2.23
2019-01-12T13:36:58.953Z,2.30
2019-01-12T13:39:32.135Z,2.30
2019-01-12T13:42:01.075Z,2.40
2019-01-12T13:44:30.660Z,2.47
2019-01-12T13:47:00.193Z,2.03
2019-01-12T13:49:29.741Z,1.67
2019-01-12T13:51:59.943Z,1.83
2019-01-12T13:54:29.379Z,1.77
2019-01-12T13:56:57.876Z,2.20
2019-01-12T13:59:46.459Z,1.43
2019-01-12T14:02:27.478Z,1.83
2019-01-12T14:04:57.073Z,1.90
2019-01-12T14:07:26.621Z,1.83
2019-01-12T14:13:11.459Z,2.70
2019-01-12T14:16:01.258Z,2.07
2019-01-12T14:18:30.899Z,1.70
2019-01-12T14:21:00.455Z,1.70
2019-01-12T14:23:30.010Z,2.10
2019-01-12T14:25:59.465Z,1.73
2019-01-12T14:28:30.867Z,1.70
2019-01-12T14:33:39.452Z,1.97
2019-01-12T14:39:21.903Z,2.10
2019-01-12T14:41:51.406Z,2.43
2019-01-12T14:44:20.814Z,1.80
2019-01-12T14:46:50.301Z,2.50
2019-01-12T14:49:38.849Z,2.10
2019-01-12T14:52:19.512Z,2.00
2019-01-12T14:55:00.376Z,2.50
2019-01-12T14:57:30.392Z,2.37
2019-01-12T15:00:19.662Z,2.00
2019-01-12T15:03:00.850Z,2.20
2019-01-12T15:05:32.956Z,2.27
2019-01-12T15:08:02.493Z,2.40
2019-01-12T15:10:32.082Z,2.37
2019-01-12T15:13:20.622Z,2.77
2019-01-12T15:15:50.281Z,2.90
2019-01-12T15:18:41.129Z,2.30
2019-01-12T15:21:24.968Z,2.37
2019-01-12T15:24:06.651Z,2.17
2019-01-12T15:26:36.498Z,2.10
2019-01-12T15:29:06.334Z,2.20
2019-01-12T15:31:39.627Z,2.57
2019-01-12T15:34:09.563Z,2.43
2019-01-12T15:36:40.630Z,2.67
2019-01-12T15:39:10.140Z,2.63
2019-01-12T15:41:43.134Z,2.47
2019-01-12T15:44:12.744Z,1.90
2019-01-12T15:49:37.018Z,2.50
2019-01-12T15:55:11.538Z,2.57
2019-01-12T15:57:43.118Z,2.43
2019-01-12T16:00:47.779Z,2.37
2019-01-12T16:03:28.966Z,2.30
2019-01-12T16:06:01.708Z,2.50
2019-01-12T16:08:31.556Z,2.33
2019-01-12T16:11:01.434Z,2.57
2019-01-12T16:13:31.151Z,2.60
2019-01-12T16:16:10.060Z,3.60
2019-01-12T16:21:17.551Z,2.60
2019-01-12T16:24:20.236Z,2.97
2019-01-12T16:27:04.672Z,2.83
2019-01-12T16:29:34.518Z,2.40
2019-01-12T16:32:06.051Z,3.57
2019-01-12T16:37:12.896Z,2.87
2019-01-12T16:39:42.670Z,2.43
2019-01-12T16:42:31.450Z,3.03
2019-01-12T16:45:02.093Z,2.63
2019-01-12T16:50:25.396Z,2.60
2019-01-12T16:52:55.784Z,3.10
2019-01-12T16:55:44.308Z,3.03
2019-01-12T16:58:18.476Z,2.70
2019-01-12T17:00:48.274Z,3.40
2019-01-12T17:03:18.035Z,2.93
2019-01-12T17:05:47.594Z,2.70
2019-01-12T17:08:17.323Z,2.73
2019-01-12T17:11:05.785Z,3.10
2019-01-12T17:13:46.778Z,2.73
2019-01-12T17:16:16.902Z,3.70
2019-01-12T17:18:46.496Z,3.20
2019-01-12T17:21:16.092Z,2.83
2019-01-12T17:24:05.044Z,2.97
2019-01-12T17:26:34.856Z,3.70
2019-01-12T17:29:18.756Z,3.10
2019-01-12T17:31:36.377Z,3.60
2019-01-12T17:34:06.088Z,3.20
2019-01-12T17:39:31.517Z,3.17
2019-01-12T17:42:01.262Z,3.27
2019-01-12T17:44:31.071Z,3.70
2019-01-12T17:47:01.020Z,3.70
2019-01-12T17:49:32.759Z,4.53
2019-01-12T17:52:22.160Z,3.90
2019-01-12T17:54:55.780Z,3.80
2019-01-12T17:57:29.629Z,3.07
2019-01-12T18:05:57.270Z,3.80
2019-01-12T18:08:27.267Z,3.27
2019-01-12T18:11:20.226Z,3.67
2019-01-12T18:13:49.825Z,3.77
2019-01-12T18:16:22.792Z,3.93
2019-01-12T18:18:52.558Z,3.53
2019-01-12T18:21:31.119Z,4.03
2019-01-12T18:24:01.201Z,4.10
2019-01-12T18:26:34.154Z,4.40
2019-01-12T18:29:03.951Z,3.70
2019-01-12T18:31:34.038Z,3.60
2019-01-12T18:35:11.818Z,3.10
2019-01-12T18:40:16.106Z,3.03
2019-01-12T18:42:45.812Z,3.63
2019-01-12T18:45:19.815Z,3.20
2019-01-12T18:47:49.529Z,3.60
2019-01-12T18:50:24.418Z,3.83
2019-01-12T18:53:13.149Z,3.13
2019-01-12T18:55:54.662Z,2.60
2019-01-12T18:58:26.578Z,3.10
2019-01-12T19:00:56.979Z,3.03
2019-01-12T19:03:26.780Z,3.47
2019-01-12T19:05:59.545Z,3.23
2019-01-12T19:08:29.793Z,4.13
2019-01-12T19:13:34.800Z,4.30
2019-01-12T19:16:04.828Z,3.57
2019-01-12T19:18:34.469Z,3.87
2019-01-12T19:26:28.660Z,4.10
2019-01-12T19:29:09.559Z,3.80
2019-01-12T19:31:39.705Z,3.70
2019-01-12T19:34:09.496Z,3.70
2019-01-12T19:36:41.001Z,4.03
2019-01-12T19:42:00.104Z,4.23
2019-01-12T19:44:30.230Z,3.83
2019-01-12T19:49:52.067Z,4.07
2019-01-12T19:52:24.642Z,3.93
2019-01-12T19:54:56.809Z,3.53
2019-01-12T19:57:26.695Z,3.60
2019-01-12T19:59:58.408Z,4.20
2019-01-12T20:02:47.625Z,3.50
2019-01-12T20:05:36.502Z,3.80
2019-01-12T20:08:18.176Z,3.90
2019-01-12T20:10:53.908Z,3.97
2019-01-12T20:13:42.638Z,4.33
2019-01-12T20:16:25.018Z,3.93
2019-01-12T20:19:13.595Z,4.40
2019-01-12T20:21:43.559Z,4.07
2019-01-12T20:27:25.011Z,4.73
2019-01-12T20:30:14.434Z,4.43
2019-01-12T20:33:15.850Z,4.20
2019-01-12T20:36:23.467Z,3.97
2019-01-12T20:39:30.898Z,3.80
2019-01-12T20:42:39.356Z,4.30
2019-01-12T20:45:49.068Z,4.47
2019-01-12T20:48:30.186Z,4.07
2019-01-12T20:51:37.611Z,4.17
2019-01-12T20:54:48.815Z,4.20
2019-01-12T20:57:56.559Z,5.07
2019-01-12T21:00:38.018Z,5.07
2019-01-12T21:03:46.393Z,4.43
2019-01-12T21:06:38.423Z,4.37
2019-01-12T21:09:56.111Z,4.30
2019-01-12T21:13:07.155Z,4.57
2019-01-12T21:18:49.795Z,4.23
2019-01-12T21:21:40.345Z,4.67
2019-01-12T21:24:50.014Z,4.50
2019-01-12T21:27:38.794Z,4.87
2019-01-12T21:30:36.124Z,4.03
2019-01-12T21:46:35.218Z,4.40
2019-01-12T21:49:38.659Z,4.23
2019-01-12T21:52:08.299Z,4.60
2019-01-12T21:54:39.225Z,4.20
2019-01-12T22:02:46.209Z,3.87
2019-01-12T22:05:15.818Z,4.73
2019-01-12T22:07:45.304Z,4.13
2019-01-12T22:10:19.329Z,4.57
2019-01-12T22:12:48.606Z,4.87
2019-01-12T22:15:45.141Z,4.03
2019-01-12T22:18:38.091Z,4.43
2019-01-12T22:21:28.878Z,4.80
2019-01-12T22:24:18.137Z,4.37
2019-01-12T22:26:49.403Z,4.63
2019-01-12T22:29:51.855Z,4.60
2019-01-12T22:32:36.469Z,5.37
2019-01-12T22:35:25.782Z,4.90
2019-01-12T22:38:44.884Z,5.20
2019-01-12T22:41:14.479Z,5.27
2019-01-12T22:43:43.927Z,4.73
2019-01-12T22:46:13.422Z,4.77
2019-01-12T22:48:42.849Z,4.93
2019-01-12T22:51:13.886Z,4.77
2019-01-12T22:53:45.373Z,4.60
2019-01-12T22:56:34.496Z,5.60
2019-01-12T22:59:06.038Z,4.70
2019-01-12T23:01:58.432Z,4.50
2019-01-12T23:04:29.243Z,4.53
2019-01-12T23:07:11.401Z,4.87
2019-01-12T23:12:12.184Z,4.97
2019-01-12T23:14:41.791Z,5.40
2019-01-12T23:17:12.669Z,6.53
2019-01-12T23:19:42.094Z,5.17
2019-01-12T23:22:11.668Z,5.10
2019-01-12T23:27:31.635Z,6.10
2019-01-12T23:30:06.261Z,5.53
2019-01-12T23:32:35.992Z,6.03
2019-01-12T23:35:09.444Z,6.70
2019-01-12T23:37:39.406Z,6.47
2019-01-12T23:43:06.807Z,7.13
2019-01-12T23:45:59.584Z,6.97
2019-01-12T23:48:17.068Z,6.77
2019-01-12T23:50:46.541Z,7.03
2019-01-12T23:53:16.095Z,6.13
2019-01-12T23:55:45.579Z,5.93
2019-01-12T23:58:15.080Z,5.50
